Newark, Ohio
Current Conditions -  °F | °C
As of 3:54 PM on Wednesday 17 Dec 2014 (Local Time) from KVTA Reporting Station
Overcast Overcast  
Wind Chill: 23°   Ceiling: 2000
Heat Index: 32°   Visibility: 10mi
Dew Point: 24°   Wind: 12mph
Humidity: 73%   Direction: 270°W
Pressure: 30.14"   Gusts: NA
Location:  40.06°N, 82.4°W
Report Text: KVTA 172054Z AUTO 27010KT 10SM OVC020 00/M04 A3014 RMK AO2 SLP215 T00001044 55001
Loading
Personal Weather Stations






























Interactive Weather Map New forecast layout! Learn more

10-Day Weather Forecast

Advertisements
Track Severe Weather on mobile